| time (UTC) | temp F | wind direction | speed MPH | gust MPH | rain 1hr in | rain 24hr in | rain mn in | humidity % | barometer mb |
| 20260505231324 | 78 | 114 | 1.0 | 6.0 | 0.00 | 0.00 | 0.00 | 42 | 1011.2 |
| 20260505230824 | 79 | 125 | 3.0 | 11.0 | 0.00 | 0.00 | 0.00 | 41 | 1010.9 |
| 20260505225324 | 79 | 126 | 1.0 | 9.0 | 0.00 | 0.00 | 0.00 | 42 | 1011.2 |
| 20260505224323 | 80 | 103 | 0.0 | 9.0 | 0.00 | 0.00 | 0.00 | 42 | 1011.2 |
| 20260505223322 | 80 | 222 | 4.0 | 10.0 | 0.00 | 0.00 | 0.00 | 41 | 1011.2 |
| 20260505222320 | 80 | 268 | 2.0 | 13.0 | 0.00 | 0.00 | 0.00 | 40 | 1011.2 |
| 20260505221318 | 82 | 274 | 5.0 | 14.0 | 0.00 | 0.00 | 0.00 | 38 | 1011.2 |
| 20260505220316 | 85 | 242 | 2.0 | 8.0 | 0.00 | 0.00 | 0.00 | 37 | 1011.2 |
| 20260505215314 | 86 | 210 | 2.0 | 11.0 | 0.00 | 0.00 | 0.00 | 37 | 1011.2 |
| 20260505214312 | 87 | 240 | 5.0 | 8.0 | 0.00 | 0.00 | 0.00 | 34 | 1011.2 |
| 20260505213312 | 86 | 244 | 4.0 | 11.0 | 0.00 | 0.00 | 0.00 | 35 | 1011.2 |
| 20260505212311 | 87 | 255 | 5.0 | 13.0 | 0.00 | 0.00 | 0.00 | 34 | 1010.9 |
| 20260505211309 | 88 | 230 | 2.0 | 9.0 | 0.00 | 0.00 | 0.00 | 33 | 1010.9 |
| 20260505210751 | 89 | 247 | 4.0 | 11.0 | 0.00 | 0.00 | 0.00 | 31 | 1010.9 |
| 20260505205310 | 89 | 222 | 9.0 | 15.0 | 0.00 | 0.00 | 0.00 | 30 | 1010.6 |
| 20260505204306 | 89 | 236 | 3.0 | 10.0 | 0.00 | 0.00 | 0.00 | 30 | 1010.9 |
| 20260505203305 | 89 | 250 | 2.0 | 15.0 | 0.00 | 0.00 | 0.00 | 29 | 1010.9 |
| 20260505202306 | 89 | 153 | 2.0 | 13.0 | 0.00 | 0.00 | 0.00 | 30 | 1010.9 |
| 20260505202235 | 89 | 213 | 6.0 | 11.0 | 0.00 | 0.00 | 0.00 | 30 | 1010.9 |
| 20260505200302 | 90 | 298 | 1.0 | 13.0 | 0.00 | 0.00 | 0.00 | 28 | 1010.6 |
| 20260505195301 | 89 | 45 | 0.0 | 16.0 | 0.00 | 0.00 | 0.00 | 30 | 1010.9 |
| 20260505194300 | 88 | 224 | 4.0 | 16.0 | 0.00 | 0.00 | 0.00 | 31 | 1010.9 |
| 20260505193759 | 88 | 281 | 5.0 | 11.0 | 0.00 | 0.00 | 0.00 | 30 | 1010.9 |
| 20260505192258 | 88 | 176 | 2.0 | 13.0 | 0.00 | 0.00 | 0.00 | 31 | 1010.9 |
| 20260505191256 | 88 | 213 | 17.0 | 19.0 | 0.00 | 0.00 | 0.00 | 31 | 1011.2 |
| 20260505190734 | 87 | 205 | 4.0 | 12.0 | 0.00 | 0.00 | 0.00 | 33 | 1011.6 |
| 20260505185732 | 88 | 209 | 5.0 | 10.0 | 0.00 | 0.00 | 0.00 | 34 | 1011.6 |
| 20260505184255 | 87 | 246 | 4.0 | 11.0 | 0.00 | 0.00 | 0.00 | 39 | 1011.9 |
| 20260505183256 | 88 | 222 | 3.0 | 9.0 | 0.00 | 0.00 | 0.00 | 36 | 1011.9 |
| 20260505182250 | 87 | 172 | 2.0 | 9.0 | 0.00 | 0.00 | 0.00 | 37 | 1011.6 |
| 20260505181250 | 86 | 284 | 0.0 | 9.0 | 0.00 | 0.00 | 0.00 | 40 | 1012.3 |
| 20260505180249 | 85 | 227 | 4.0 | 10.0 | 0.00 | 0.00 | 0.00 | 40 | 1012.3 |
| 20260505175251 | 86 | 192 | 2.0 | 5.0 | 0.00 | 0.00 | 0.00 | 40 | 1012.3 |
| 20260505174245 | 86 | 187 | 0.0 | 8.0 | 0.00 | 0.00 | 0.00 | 40 | 1012.6 |
| 20260505173244 | 85 | 204 | 3.0 | 10.0 | 0.00 | 0.00 | 0.00 | 43 | 1012.6 |
| 20260505172246 | 84 | 217 | 2.0 | 9.0 | 0.00 | 0.00 | 0.00 | 39 | 1012.6 |
| 20260505171241 | 84 | 207 | 0.0 | 8.0 | 0.00 | 0.00 | 0.00 | 41 | 1012.6 |
| 20260505170240 | 84 | 176 | 1.0 | 6.0 | 0.00 | 0.00 | 0.00 | 42 | 1012.9 |
| 20260505165239 | 83 | 172 | 1.0 | 9.0 | 0.00 | 0.00 | 0.00 | 44 | 1012.9 |
| 20260505164234 | 83 | 197 | 4.0 | 7.0 | 0.00 | 0.00 | 0.00 | 44 | 1012.9 |
| 20260505163235 | 83 | 247 | 3.0 | 11.0 | 0.00 | 0.00 | 0.00 | 42 | 1012.9 |
| 20260505162236 | 82 | 236 | 2.0 | 7.0 | 0.00 | 0.00 | 0.00 | 46 | 1012.9 |
| 20260505161231 | 81 | 264 | 1.0 | 8.0 | 0.00 | 0.00 | 0.00 | 43 | 1012.9 |
| 20260505160232 | 80 | 205 | 5.0 | 8.0 | 0.00 | 0.00 | 0.00 | 45 | 1013.3 |
| 20260505153238 | 82 | 215 | 2.0 | 7.0 | 0.00 | 0.00 | 0.00 | 45 | 1013.6 |
| 20260505152235 | 79 | 141 | 2.0 | 5.0 | 0.00 | 0.00 | 0.00 | 49 | 1013.6 |
| 20260505151236 | 78 | 242 | 2.0 | 4.0 | 0.00 | 0.00 | 0.00 | 49 | 1013.6 |
| 20260505150233 | 77 | 203 | 5.0 | 6.0 | 0.00 | 0.00 | 0.00 | 49 | 1013.6 |
| 20260505130233 | 69 | 233 | 4.0 | 7.0 | 0.00 | 0.00 | 0.00 | 56 | 1014.3 |
| 20260505123232 | 67 | 199 | 2.0 | 7.0 | 0.00 | 0.00 | 0.00 | 60 | 1014.0 |
| 20260505122233 | 67 | 196 | 5.0 | 10.0 | 0.00 | 0.00 | 0.00 | 62 | 1014.0 |
| 20260505121234 | 65 | 213 | 1.0 | 8.0 | 0.00 | 0.00 | 0.00 | 63 | 1014.0 |
| 20260505120234 | 65 | 192 | 3.0 | 6.0 | 0.00 | 0.00 | 0.00 | 63 | 1013.6 |
| 20260505115711 | 64 | 265 | 3.0 | 6.0 | 0.00 | 0.00 | 0.00 | 65 | 1014.0 |
| 20260505114233 | 63 | 211 | 1.0 | 6.0 | 0.00 | 0.00 | 0.00 | 67 | 1014.0 |
| 20260505113237 | 63 | 173 | 1.0 | 6.0 | 0.00 | 0.00 | 0.00 | 68 | 1013.6 |
| 20260505112232 | 62 | 211 | 3.0 | 6.0 | 0.00 | 0.00 | 0.00 | 69 | 1013.6 |
| 20260505111717 | 61 | 135 | 2.0 | 4.0 | 0.00 | 0.00 | 0.00 | 70 | 1013.3 |
| 20260505110231 | 60 | 190 | 3.0 | 5.0 | 0.00 | 0.00 | 0.00 | 72 | 1013.6 |
| 20260505101231 | 58 | 161 | 1.0 | 3.0 | 0.00 | 0.00 | 0.00 | 76 | 1012.9 |
| 20260505100724 | 58 | 119 | 1.0 | 3.0 | 0.00 | 0.00 | 0.00 | 82 | 1012.9 |
| 20260505095236 | 59 | 139 | 1.0 | 4.0 | 0.00 | 0.00 | 0.00 | 76 | 1012.9 |
| 20260505094706 | 59 | 144 | 0.0 | 4.0 | 0.00 | 0.00 | 0.00 | 76 | 1012.9 |
| 20260505093711 | 59 | 134 | 1.0 | 3.0 | 0.00 | 0.00 | 0.00 | 75 | 1012.9 |
| 20260505092233 | 60 | 160 | 1.0 | 3.0 | 0.00 | 0.00 | 0.00 | 75 | 1012.9 |
| 20260505091232 | 60 | 144 | 1.0 | 3.0 | 0.00 | 0.00 | 0.00 | 75 | 1012.9 |
| 20260505090234 | 60 | 182 | 0.0 | 4.0 | 0.00 | 0.00 | 0.00 | 74 | 1012.9 |
| 20260505085232 | 60 | 131 | 2.0 | 3.0 | 0.00 | 0.00 | 0.00 | 74 | 1012.9 |
| 20260505084233 | 60 | 129 | 2.0 | 3.0 | 0.00 | 0.00 | 0.00 | 74 | 1012.9 |
| 20260505083234 | 60 | 142 | 1.0 | 3.0 | 0.00 | 0.00 | 0.00 | 74 | 1012.9 |
| 20260505082232 | 61 | 154 | 3.0 | 4.0 | 0.00 | 0.00 | 0.00 | 74 | 1013.3 |
| 20260505081231 | 61 | 136 | 1.0 | 4.0 | 0.00 | 0.00 | 0.00 | 72 | 1012.9 |
| 20260505080233 | 60 | 161 | 2.0 | 5.0 | 0.00 | 0.00 | 0.00 | 73 | 1012.9 |
| 20260505075709 | 60 | 153 | 2.0 | 4.0 | 0.00 | 0.00 | 0.00 | 74 | 1012.9 |
| 20260505074233 | 60 | 230 | 0.0 | 5.0 | 0.00 | 0.00 | 0.00 | 73 | 1012.6 |
| 20260505073234 | 59 | 132 | 1.0 | 3.0 | 0.00 | 0.00 | 0.00 | 74 | 1012.6 |
| 20260505072235 | 59 | 160 | 2.0 | 6.0 | 0.00 | 0.00 | 0.00 | 74 | 1012.9 |
| 20260505071235 | 58 | 163 | 1.0 | 3.0 | 0.00 | 0.00 | 0.00 | 75 | 1012.6 |
| 20260505070708 | 58 | 135 | 2.0 | 2.0 | 0.00 | 0.00 | 0.00 | 75 | 1012.9 |
| 20260505065232 | 57 | 163 | 1.0 | 2.0 | 0.00 | 0.00 | 0.00 | 75 | 1012.9 |
| 20260505064228 | 58 | 143 | 2.0 | 2.0 | 0.00 | 0.00 | 0.00 | 74 | 1012.9 |
| 20260505063718 | 58 | 124 | 2.0 | 2.0 | 0.00 | 0.00 | 0.00 | 74 | 1012.6 |
| 20260505062227 | 58 | 132 | 2.0 | 2.0 | 0.00 | 0.00 | 0.00 | 73 | 1012.6 |
| 20260505062148 | 59 | 133 | 2.0 | 2.0 | 0.00 | 0.00 | 0.00 | 73 | 1012.6 |
| 20260505060226 | 59 | 145 | 2.0 | 2.0 | 0.00 | 0.00 | 0.00 | 71 | 1012.9 |
| 20260505055224 | 60 | 134 | 2.0 | 4.0 | 0.00 | 0.00 | 0.00 | 71 | 1012.6 |
| 20260505054222 | 60 | 113 | 0.0 | 4.0 | 0.00 | 0.00 | 0.00 | 70 | 1012.9 |
| 20260505053226 | 61 | 163 | 2.0 | 5.0 | 0.00 | 0.00 | 0.00 | 69 | 1012.9 |
| 20260505052220 | 61 | 163 | 1.0 | 4.0 | 0.00 | 0.00 | 0.00 | 69 | 1012.6 |
| 20260505051217 | 62 | 180 | 0.0 | 5.0 | 0.00 | 0.00 | 0.00 | 67 | 1012.9 |
| 20260505050216 | 62 | 134 | 1.0 | 5.0 | 0.00 | 0.00 | 0.00 | 66 | 1012.9 |
| 20260505041209 | 62 | 114 | 1.0 | 3.0 | 0.00 | 0.00 | 0.00 | 65 | 1012.6 |
| 20260505040206 | 62 | 252 | 0.0 | 4.0 | 0.00 | 0.00 | 0.00 | 65 | 1012.6 |
| 20260505035207 | 62 | 136 | 2.0 | 4.0 | 0.00 | 0.00 | 0.00 | 66 | 1012.6 |
| 20260505034205 | 61 | 147 | 2.0 | 5.0 | 0.00 | 0.00 | 0.00 | 66 | 1012.9 |
| 20260505033204 | 61 | 138 | 2.0 | 4.0 | 0.00 | 0.00 | 0.00 | 65 | 1012.6 |
| 20260505032204 | 62 | 159 | 0.0 | 3.0 | 0.00 | 0.00 | 0.00 | 65 | 1012.6 |
| 20260505031611 | 62 | 157 | 2.0 | 3.0 | 0.00 | 0.00 | 0.00 | 64 | 1012.3 |
| 20260505031345 | 62 | 195 | 2.0 | 4.0 | 0.00 | 0.00 | 0.00 | 65 | 1012.6 |
| 20260505025639 | 62 | 145 | 1.0 | 3.0 | 0.00 | 0.00 | 0.00 | 62 | 1012.6 |
| 20260505025055 | 62 | 150 | 3.0 | 3.0 | 0.00 | 0.00 | 0.00 | 59 | 1012.9 |
| 20260505024339 | 61 | 176 | 0.0 | 3.0 | 0.00 | 0.00 | 0.00 | 60 | 1012.9 |
| 20260505022638 | 62 | 165 | 2.0 | 4.0 | 0.00 | 0.00 | 0.00 | 56 | 1012.9 |
| 20260505021159 | 62 | 111 | 2.0 | 3.0 | 0.00 | 0.00 | 0.00 | 55 | 1012.9 |
| 20260505020153 | 62 | 125 | 1.0 | 3.0 | 0.00 | 0.00 | 0.00 | 55 | 1012.9 |
| 20260505015152 | 62 | 130 | 2.0 | 3.0 | 0.00 | 0.00 | 0.00 | 56 | 1012.9 |
| 20260505014150 | 62 | 142 | 1.0 | 2.0 | 0.00 | 0.00 | 0.00 | 56 | 1012.6 |
| 20260505013151 | 62 | 124 | 2.0 | 2.0 | 0.00 | 0.00 | 0.00 | 56 | 1012.9 |
| 20260505012149 | 62 | 121 | 2.0 | 2.0 | 0.00 | 0.00 | 0.00 | 56 | 1012.9 |
| 20260505011146 | 63 | 125 | 2.0 | 3.0 | 0.00 | 0.00 | 0.00 | 55 | 1012.6 |
| 20260505010146 | 63 | 150 | 1.0 | 3.0 | 0.00 | 0.00 | 0.00 | 54 | 1012.6 |
| 20260505005147 | 64 | 139 | 2.0 | 3.0 | 0.00 | 0.00 | 0.00 | 54 | 1012.6 |
| 20260505005104 | 64 | 146 | 1.0 | 3.0 | 0.00 | 0.00 | 0.00 | 52 | 1012.3 |
| 20260505003136 | 65 | 140 | 2.0 | 3.0 | 0.00 | 0.00 | 0.00 | 51 | 1012.3 |
| 20260505002611 | 65 | 141 | 2.0 | 3.0 | 0.00 | 0.00 | 0.00 | 50 | 1012.3 |
| 20260505001132 | 66 | 142 | 0.0 | 3.0 | 0.00 | 0.00 | 0.00 | 49 | 1012.3 |
| 20260505000134 | 66 | 154 | 1.0 | 3.0 | 0.00 | 0.00 | 0.00 | 48 | 1011.9 |
| 20260504235135 | 67 | 148 | 1.0 | 4.0 | 0.00 | 0.00 | 0.00 | 47 | 1011.9 |
| 20260504234135 | 68 | 127 | 2.0 | 3.0 | 0.00 | 0.00 | 0.00 | 45 | 1011.9 |
| 20260504233133 | 69 | 256 | 1.0 | 3.0 | 0.00 | 0.00 | 0.00 | 44 | 1011.9 |
| 20260504232624 | 70 | 139 | 0.0 | 2.0 | 0.00 | 0.00 | 0.00 | 43 | 1011.9 |